Time;durP1;ratioP1;P1;durP2;ratioP2;P2;SDS_P1;SDS_P2;PMS_P1;PMS_P2;Temp;Humidity;BMP_temperature;BMP_pressure;BME280_temperature;BME280_humidity;BME280_pressure;Samples;Min_cycle;Max_cycle;Signal;HPM_P1;HPM_P2
2024/04/09 00:00:13;;;;;;;25.13;4.35;;;;;;;14.59;100.00;95017.88;1089231;27;20006;-73
2024/04/09 00:00:46;;;;;;;24.77;5.13;;;;;;;14.55;100.00;95015.06;1090881;26;20026;-72
2024/04/09 00:01:17;;;;;;;25.00;4.65;;;;;;;14.54;100.00;95013.50;1085807;27;20011;-74
2024/04/09 00:01:48;;;;;;;14.43;3.83;;;;;;;14.52;100.00;95013.03;1083636;27;20507;-73
2024/04/09 00:02:18;;;;;;;22.10;5.45;;;;;;;14.52;100.00;95017.50;1084234;27;20079;-73
2024/04/09 00:02:49;;;;;;;33.65;4.65;;;;;;;14.50;100.00;95019.66;1083831;26;20419;-73
2024/04/09 00:03:19;;;;;;;32.05;4.85;;;;;;;14.47;100.00;95025.56;1103494;26;19997;-73
2024/04/09 00:03:50;;;;;;;36.42;5.45;;;;;;;14.45;100.00;95030.34;1075171;27;20075;-73
2024/04/09 00:04:20;;;;;;;19.55;5.00;;;;;;;14.41;100.00;95032.03;1081076;27;20073;-73
2024/04/09 00:04:51;;;;;;;25.35;4.60;;;;;;;14.42;100.00;95033.59;1082334;27;20003;-73
2024/04/09 00:05:24;;;;;;;25.77;4.80;;;;;;;14.37;100.00;95019.44;1082574;27;20514;-73
2024/04/09 00:05:54;;;;;;;27.45;4.97;;;;;;;14.41;100.00;95024.13;1091559;27;20005;-73
2024/04/09 00:06:25;;;;;;;25.40;4.90;;;;;;;14.41;100.00;95027.53;1089946;27;20014;-73
2024/04/09 00:06:55;;;;;;;22.60;4.43;;;;;;;14.43;100.00;95028.03;1096466;27;20002;-74
2024/04/09 00:07:26;;;;;;;15.77;5.13;;;;;;;14.49;100.00;95012.84;1097502;26;20006;-73
2024/04/09 00:07:57;;;;;;;22.27;4.88;;;;;;;14.55;100.00;95001.06;1089112;27;20002;-73
2024/04/09 00:08:27;;;;;;;23.63;5.00;;;;;;;14.57;100.00;94988.34;1087811;27;20128;-73
2024/04/09 00:08:58;;;;;;;32.05;5.10;;;;;;;14.58;100.00;94979.34;1095015;27;20099;-73
2024/04/09 00:09:31;;;;;;;18.65;4.13;;;;;;;14.61;100.00;94973.44;1081866;27;20491;-73
2024/04/09 00:10:06;;;;;;;35.80;4.93;;;;;;;14.63;100.00;94967.88;1089761;27;20010;-72
2024/04/09 00:10:37;;;;;;;18.95;4.10;;;;;;;14.63;100.00;94958.09;1089194;27;19998;-72
2024/04/09 00:11:20;;;;;;;22.08;4.88;;;;;;;14.69;100.00;94959.50;1083118;27;20042;-73
2024/04/09 00:11:53;;;;;;;18.90;4.53;;;;;;;14.53;100.00;94940.66;1074917;27;20495;-73
2024/04/09 00:12:25;;;;;;;21.00;4.43;;;;;;;14.67;100.00;94959.03;1079684;27;20014;-73
2024/04/09 00:12:55;;;;;;;14.85;3.50;;;;;;;14.65;100.00;94953.25;1083215;27;20007;-73
2024/04/09 00:13:29;;;;;;;18.88;5.72;;;;;;;14.68;100.00;94946.59;1103325;26;20001;-74
2024/04/09 00:13:59;;;;;;;24.80;5.25;;;;;;;14.74;100.00;94940.84;1096358;27;20049;-73
2024/04/09 00:14:30;;;;;;;36.10;4.63;;;;;;;14.77;100.00;94940.25;1088935;27;20017;-73
2024/04/09 00:15:02;;;;;;;21.50;4.60;;;;;;;14.77;100.00;94936.81;1082381;27;20111;-73
2024/04/09 00:15:33;;;;;;;26.45;4.38;;;;;;;14.75;100.00;94937.13;1084541;26;20791;-73
2024/04/09 00:16:12;;;;;;;24.58;4.78;;;;;;;14.74;100.00;94932.94;1086171;27;20002;-73
2024/04/09 00:16:42;;;;;;;20.33;4.32;;;;;;;14.79;100.00;94932.78;1098687;26;20076;-73
2024/04/09 00:17:13;;;;;;;26.02;4.90;;;;;;;14.79;100.00;94927.50;1094105;27;20451;-73
2024/04/09 00:17:54;;;;;;;19.20;3.65;;;;;;;14.80;100.00;94929.06;1097584;26;20024;-73
2024/04/09 00:18:25;;;;;;;17.35;4.38;;;;;;;14.87;100.00;94919.91;1091573;27;20005;-74
2024/04/09 00:18:55;;;;;;;23.60;4.18;;;;;;;14.95;100.00;94911.97;1082008;27;20003;-73
2024/04/09 00:19:26;;;;;;;20.05;3.63;;;;;;;15.03;100.00;94911.22;1086370;27;20460;-73
2024/04/09 00:19:56;;;;;;;16.15;3.67;;;;;;;15.12;100.00;94903.28;1096145;27;20001;-73
2024/04/09 00:20:29;;;;;;;22.25;4.05;;;;;;;15.19;100.00;94903.59;1089220;26;20046;-73
2024/04/09 00:21:00;;;;;;;20.77;4.10;;;;;;;15.28;100.00;94896.41;1081478;27;20004;-73
2024/04/09 00:21:30;;;;;;;27.48;5.07;;;;;;;15.26;100.00;94892.56;1075512;27;20004;-72
2024/04/09 00:22:01;;;;;;;17.63;4.35;;;;;;;15.30;100.00;94888.97;1076079;27;20075;-72
2024/04/09 00:22:32;;;;;;;21.05;4.80;;;;;;;15.32;100.00;94896.56;1086523;26;20017;-73
2024/04/09 00:23:03;;;;;;;18.35;3.70;;;;;;;15.25;100.00;94886.47;1110215;26;20360;-73
2024/04/09 00:23:35;;;;;;;22.17;4.50;;;;;;;15.29;100.00;94897.19;1103418;26;20075;-72
2024/04/09 00:24:07;;;;;;;23.52;4.03;;;;;;;15.39;100.00;94893.44;1096060;27;20006;-73
2024/04/09 00:24:38;;;;;;;16.65;4.38;;;;;;;15.36;100.00;94888.78;1099692;26;20689;-72
2024/04/09 00:25:10;;;;;;;13.75;3.80;;;;;;;15.27;100.00;94884.31;1095949;27;20006;-72
2024/04/09 00:25:40;;;;;;;25.42;4.32;;;;;;;15.30;100.00;94893.47;1075763;27;20014;-73
2024/04/09 00:26:11;;;;;;;26.33;4.50;;;;;;;15.36;100.00;94896.72;1075336;27;20067;-73
2024/04/09 00:26:42;;;;;;;25.33;3.70;;;;;;;15.38;100.00;94897.19;1089033;27;20014;-73
2024/04/09 00:27:13;;;;;;;24.90;3.90;;;;;;;15.39;100.00;94896.09;1089081;26;20054;-73
2024/04/09 00:27:43;;;;;;;15.20;3.60;;;;;;;15.35;100.00;94903.09;1090846;26;20045;-73
2024/04/09 00:28:14;;;;;;;14.70;3.85;;;;;;;15.35;100.00;94889.88;1088820;27;20003;-73
2024/04/09 00:28:44;;;;;;;18.55;4.00;;;;;;;15.47;100.00;94892.69;1082611;27;20019;-73
2024/04/09 00:29:15;;;;;;;25.05;4.00;;;;;;;15.46;100.00;94897.19;1081339;27;20003;-72
2024/04/09 00:29:45;;;;;;;19.13;3.65;;;;;;;15.52;100.00;94895.16;1082562;27;20471;-73
2024/04/09 00:30:17;;;;;;;26.35;3.80;;;;;;;15.48;100.00;94896.88;1096119;27;20280;-73
2024/04/09 00:30:48;;;;;;;15.07;3.78;;;;;;;15.50;100.00;94899.97;1083676;27;20007;-73
2024/04/09 00:31:20;;;;;;;17.90;3.75;;;;;;;15.57;100.00;94887.06;1089530;27;20009;-73
2024/04/09 00:31:52;;;;;;;25.67;4.40;;;;;;;15.59;100.00;94884.84;1096284;27;20009;-73
2024/04/09 00:32:22;;;;;;;14.45;4.10;;;;;;;15.63;100.00;94891.09;1083467;27;20013;-73
2024/04/09 00:32:53;;;;;;;24.38;4.05;;;;;;;15.73;100.00;94895.31;1096166;27;20016;-72
2024/04/09 00:33:23;;;;;;;23.02;3.47;;;;;;;15.74;100.00;94894.97;1088918;27;20009;-73
2024/04/09 00:33:55;;;;;;;15.88;3.60;;;;;;;15.70;100.00;94890.63;1089041;27;20002;-73
2024/04/09 00:34:25;;;;;;;25.00;4.10;;;;;;;15.68;100.00;94898.09;1102814;26;20448;-73
2024/04/09 00:34:58;;;;;;;18.17;3.13;;;;;;;15.63;100.00;94893.75;1101955;26;20005;-73
2024/04/09 00:35:28;;;;;;;19.05;3.72;;;;;;;15.57;100.00;94889.69;1103949;26;20458;-72
2024/04/09 00:35:59;;;;;;;21.42;3.53;;;;;;;15.59;100.00;94900.72;1090611;26;20002;-73
2024/04/09 00:36:29;;;;;;;20.27;4.10;;;;;;;15.63;100.00;94895.63;1075145;27;20399;-72
2024/04/09 00:37:00;;;;;;;18.55;4.10;;;;;;;15.62;100.00;94897.44;1068728;27;20019;-72
2024/04/09 00:37:30;;;;;;;18.25;3.47;;;;;;;15.62;100.00;94892.16;1075238;27;20055;-73
2024/04/09 00:38:06;;;;;;;16.48;3.92;;;;;;;15.64;100.00;94890.00;1088892;27;20006;-73
2024/04/09 00:38:38;;;;;;;18.25;3.13;;;;;;;15.76;100.00;94895.44;1090422;27;20002;-73
2024/04/09 00:39:22;;;;;;;25.92;3.30;;;;;;;15.68;100.00;94893.59;1098203;26;20489;-72
2024/04/09 00:39:52;;;;;;;29.50;4.75;;;;;;;15.68;100.00;94898.09;1089277;27;20006;-73
2024/04/09 00:40:26;;;;;;;12.23;2.85;;;;;;;15.68;100.00;94893.59;1092929;27;20068;-73
2024/04/09 00:40:57;;;;;;;12.95;4.10;;;;;;;15.68;100.00;94888.28;1096400;27;20013;-73
2024/04/09 00:41:29;;;;;;;14.57;3.63;;;;;;;15.68;100.00;94896.22;1082294;27;19999;-73
2024/04/09 00:42:00;;;;;;;14.40;2.90;;;;;;;15.67;100.00;94891.28;1083471;27;20018;-73
2024/04/09 00:42:31;;;;;;;17.00;4.28;;;;;;;15.65;100.00;94899.47;1083561;27;20021;-73
2024/04/09 00:43:02;;;;;;;9.93;3.15;;;;;;;15.61;100.00;94893.25;1090193;26;20013;-72
2024/04/09 00:43:32;;;;;;;19.77;3.70;;;;;;;15.62;100.00;94908.03;1089021;27;20002;-73
2024/04/09 00:44:04;;;;;;;18.10;3.88;;;;;;;15.62;100.00;94900.09;1079849;27;20466;-73
2024/04/09 00:44:36;;;;;;;19.27;3.33;;;;;;;15.67;100.00;94892.03;1085450;27;20013;-73
2024/04/09 00:45:06;;;;;;;12.80;3.22;;;;;;;15.67;100.00;94899.97;1090574;27;20006;-72
2024/04/09 00:45:37;;;;;;;23.67;3.90;;;;;;;15.60;100.00;94889.06;1082183;27;20007;-72
2024/04/09 00:46:10;;;;;;;22.30;3.40;;;;;;;15.66;100.00;94901.06;1069805;27;20004;-72
2024/04/09 00:46:42;;;;;;;17.55;3.03;;;;;;;15.66;100.00;94895.78;1082725;27;20011;-73
2024/04/09 00:47:16;;;;;;;18.52;3.88;;;;;;;15.69;100.00;94903.09;1096333;27;20017;-73
2024/04/09 00:47:46;;;;;;;16.98;3.30;;;;;;;15.64;100.00;94908.50;1084265;27;20074;-73
2024/04/09 00:48:17;;;;;;;16.20;3.10;;;;;;;15.60;100.00;94912.09;1102956;26;20713;-73
2024/04/09 00:48:48;;;;;;;20.20;3.90;;;;;;;15.53;100.00;94902.00;1094852;27;20559;-73
2024/04/09 00:49:19;;;;;;;20.80;4.15;;;;;;;15.55;100.00;94907.75;1081429;27;20051;-73
2024/04/09 00:49:49;;;;;;;10.38;3.38;;;;;;;15.57;100.00;94903.69;1087170;27;20013;-73
2024/04/09 00:50:20;;;;;;;13.90;3.22;;;;;;;15.65;100.00;94904.00;1082056;27;20019;-73
2024/04/09 00:50:51;;;;;;;16.73;3.40;;;;;;;15.67;100.00;94907.91;1075360;27;19999;-73
2024/04/09 00:51:22;;;;;;;23.02;4.18;;;;;;;15.67;100.00;94918.50;1075051;27;20591;-72
2024/04/09 00:51:52;;;;;;;16.50;3.47;;;;;;;15.68;100.00;94906.03;1089009;27;20047;-73
2024/04/09 00:52:23;;;;;;;14.95;2.85;;;;;;;15.62;100.00;94900.09;1082229;27;20493;-73
2024/04/09 00:52:55;;;;;;;13.98;4.13;;;;;;;15.60;100.00;94909.47;1082624;27;20078;-73
2024/04/09 00:53:25;;;;;;;16.83;4.55;;;;;;;15.56;100.00;94906.66;1091250;27;20089;-73
2024/04/09 00:53:56;;;;;;;10.48;2.83;;;;;;;15.49;100.00;94906.34;1095993;27;19998;-73
2024/04/09 00:54:27;;;;;;;21.27;3.80;;;;;;;15.46;100.00;94909.63;1075154;27;20004;-73
2024/04/09 00:55:03;;;;;;;18.30;3.28;;;;;;;15.42;100.00;94917.41;1087790;27;20002;-73
2024/04/09 00:55:33;;;;;;;17.83;3.63;;;;;;;15.38;100.00;94916.47;1089155;27;19998;-73
2024/04/09 00:56:05;;;;;;;15.88;3.25;;;;;;;15.24;100.00;94932.50;1088930;27;20104;-73
2024/04/09 00:56:37;;;;;;;12.55;3.58;;;;;;;15.15;100.00;94926.44;1080165;27;20003;-73
2024/04/09 00:57:07;;;;;;;20.10;4.63;;;;;;;15.06;100.00;94920.38;1081758;27;20007;-72
2024/04/09 00:57:39;;;;;;;13.90;3.10;;;;;;;15.06;100.00;94925.69;1082094;27;20542;-73
2024/04/09 00:58:10;;;;;;;20.63;4.55;;;;;;;15.03;100.00;94921.78;1075035;27;20409;-72
2024/04/09 00:58:40;;;;;;;10.23;3.50;;;;;;;14.95;100.00;94921.75;1082146;27;20011;-73
2024/04/09 00:59:12;;;;;;;18.85;3.58;;;;;;;14.89;100.00;94915.06;1086854;27;20017;-73
2024/04/09 00:59:43;;;;;;;16.38;4.30;;;;;;;14.84;100.00;94916.78;1081855;27;19999;-72
2024/04/09 01:00:16;;;;;;;15.15;4.40;;;;;;;14.83;100.00;94917.88;1089042;27;20014;-72
2024/04/09 01:00:48;;;;;;;30.08;4.25;;;;;;;14.78;100.00;94925.94;1092360;26;20373;-73
2024/04/09 01:01:18;;;;;;;19.48;4.03;;;;;;;14.71;100.00;94928.25;1082247;27;20007;-72
2024/04/09 01:01:49;;;;;;;25.08;4.28;;;;;;;14.61;100.00;94920.63;1096173;27;20608;-72
2024/04/09 01:02:21;;;;;;;16.83;4.18;;;;;;;14.64;100.00;94920.03;1081872;27;20514;-73
2024/04/09 01:02:53;;;;;;;17.02;3.35;;;;;;;14.69;100.00;94921.72;1089026;27;20038;-72
2024/04/09 01:03:24;;;;;;;14.30;3.58;;;;;;;14.69;100.00;94922.53;1103234;26;20005;-73
2024/04/09 01:03:55;;;;;;;15.15;4.43;;;;;;;14.66;100.00;94917.88;1103230;26;20033;-72
2024/04/09 01:04:25;;;;;;;15.75;3.83;;;;;;;14.74;100.00;94914.44;1095997;27;20021;-72
2024/04/09 01:04:56;;;;;;;20.05;4.40;;;;;;;14.78;100.00;94904.81;1082101;27;19999;-72
2024/04/09 01:05:26;;;;;;;16.65;3.67;;;;;;;14.90;100.00;94919.28;1082260;27;20053;-72
2024/04/09 01:05:57;;;;;;;17.50;3.42;;;;;;;14.93;100.00;94910.75;1081806;27;20011;-72
2024/04/09 01:06:27;;;;;;;13.82;3.03;;;;;;;14.85;100.00;94907.00;1089086;27;20007;-72
2024/04/09 01:06:58;;;;;;;19.20;3.63;;;;;;;14.82;100.00;94905.78;1089072;27;20003;-72
2024/04/09 01:07:28;;;;;;;16.42;3.85;;;;;;;14.81;100.00;94904.19;1084111;27;20026;-72
2024/04/09 01:07:58;;;;;;;17.48;3.45;;;;;;;14.83;100.00;94895.97;1082307;27;19999;-73
2024/04/09 01:08:29;;;;;;;18.33;3.50;;;;;;;14.83;100.00;94903.91;1082109;27;20007;-72
2024/04/09 01:08:59;;;;;;;18.88;3.72;;;;;;;14.77;100.00;94905.91;1081997;27;20007;-73
2024/04/09 01:09:30;;;;;;;10.85;3.08;;;;;;;14.74;100.00;94903.09;1081045;27;19999;-72
2024/04/09 01:10:00;;;;;;;22.33;3.95;;;;;;;14.66;100.00;94907.31;1089141;27;20018;-72
2024/04/09 01:10:31;;;;;;;27.35;4.20;;;;;;;14.64;100.00;94914.75;1088877;27;20017;-71
2024/04/09 01:11:01;;;;;;;15.95;3.78;;;;;;;14.57;100.00;94909.13;1095751;27;20006;-72
2024/04/09 01:11:32;;;;;;;18.55;4.20;;;;;;;14.52;100.00;94907.44;1082143;27;20070;-73
2024/04/09 01:12:02;;;;;;;19.92;4.25;;;;;;;14.51;100.00;94910.38;1089098;27;20002;-72
2024/04/09 01:12:33;;;;;;;13.48;3.72;;;;;;;14.49;100.00;94907.25;1088838;26;20017;-72
2024/04/09 01:13:04;;;;;;;20.13;3.78;;;;;;;14.50;100.00;94914.06;1082606;27;20015;-72
2024/04/09 01:13:36;;;;;;;16.35;4.03;;;;;;;14.48;100.00;94905.66;1082124;27;19998;-73
2024/04/09 01:14:06;;;;;;;13.63;3.70;;;;;;;14.53;100.00;94924.03;1082169;27;20077;-72
2024/04/09 01:14:37;;;;;;;23.48;3.70;;;;;;;14.52;100.00;94917.19;1081949;27;20018;-73
2024/04/09 01:15:10;;;;;;;15.25;3.20;;;;;;;14.54;100.00;94909.75;1083152;27;20504;-73
2024/04/09 01:15:40;;;;;;;29.73;4.45;;;;;;;14.54;100.00;94905.25;1097012;26;20006;-73
2024/04/09 01:16:11;;;;;;;15.25;3.20;;;;;;;14.52;100.00;94912.72;1096134;26;20001;-72
2024/04/09 01:16:42;;;;;;;17.52;4.15;;;;;;;14.58;100.00;94914.09;1089882;27;20497;-72
2024/04/09 01:17:12;;;;;;;23.65;3.75;;;;;;;14.63;100.00;94902.63;1089330;27;20002;-72
2024/04/09 01:17:43;;;;;;;23.50;3.85;;;;;;;14.62;100.00;94911.66;1089028;27;20025;-72
2024/04/09 01:18:13;;;;;;;22.13;4.15;;;;;;;14.60;100.00;94909.31;1082290;27;20058;-72
2024/04/09 01:18:43;;;;;;;20.02;4.32;;;;;;;14.58;100.00;94910.69;1089234;27;20018;-72
2024/04/09 01:19:14;;;;;;;13.75;3.40;;;;;;;14.60;100.00;94913.81;1095349;26;20002;-71
2024/04/09 01:19:45;;;;;;;17.98;3.10;;;;;;;14.65;100.00;94910.22;1096078;27;20020;-72
2024/04/09 01:20:16;;;;;;;17.77;3.25;;;;;;;14.67;100.00;94902.78;1096937;26;20053;-73
2024/04/09 01:20:46;;;;;;;15.88;3.50;;;;;;;14.68;100.00;94902.47;1096129;27;20013;-72
2024/04/09 01:21:18;;;;;;;23.77;4.03;;;;;;;14.68;100.00;94899.81;1089092;27;20069;-72
2024/04/09 01:21:50;;;;;;;17.30;3.38;;;;;;;14.70;100.00;94908.22;1082122;27;20003;-72
2024/04/09 01:22:21;;;;;;;16.58;3.38;;;;;;;14.64;100.00;94901.53;1089076;27;20093;-73
2024/04/09 01:22:51;;;;;;;17.23;3.85;;;;;;;14.70;100.00;94907.47;1095726;27;20020;-72
2024/04/09 01:23:22;;;;;;;15.23;3.42;;;;;;;14.67;100.00;94900.16;1088628;27;20018;-72
2024/04/09 01:23:53;;;;;;;17.20;3.40;;;;;;;14.74;100.00;94903.09;1095203;26;19998;-72
2024/04/09 01:24:24;;;;;;;19.00;3.40;;;;;;;14.73;100.00;94901.56;1095428;27;20012;-72
2024/04/09 01:24:54;;;;;;;14.48;3.75;;;;;;;14.76;100.00;94906.22;1089815;26;20090;-72
2024/04/09 01:25:25;;;;;;;19.05;3.40;;;;;;;14.72;100.00;94900.78;1103100;26;20005;-72
2024/04/09 01:25:55;;;;;;;23.98;3.72;;;;;;;14.79;100.00;94911.66;1095924;27;20006;-73
2024/04/09 01:26:26;;;;;;;16.60;3.97;;;;;;;14.80;100.00;94904.53;1088957;27;20414;-72
2024/04/09 01:26:57;;;;;;;16.65;3.58;;;;;;;14.76;100.00;94901.72;1089086;27;20006;-73
2024/04/09 01:27:27;;;;;;;12.60;2.92;;;;;;;14.81;100.00;94900.78;1082111;27;20010;-73
2024/04/09 01:27:58;;;;;;;18.38;3.90;;;;;;;14.83;100.00;94896.75;1099561;26;20527;-73
2024/04/09 01:28:30;;;;;;;14.35;3.53;;;;;;;14.88;100.00;94902.97;1110304;26;20066;-72
2024/04/09 01:29:01;;;;;;;18.05;3.22;;;;;;;14.89;100.00;94900.03;1103904;26;20380;-73
2024/04/09 01:29:32;;;;;;;13.70;3.13;;;;;;;14.91;100.00;94902.34;1100179;26;20012;-73
2024/04/09 01:30:08;;;;;;;13.43;2.88;;;;;;;14.91;100.00;94897.84;1074458;27;20004;-73
2024/04/09 01:30:39;;;;;;;15.40;2.97;;;;;;;14.89;100.00;94893.94;1076516;27;20010;-72
2024/04/09 01:31:15;;;;;;;19.40;4.25;;;;;;;14.93;100.00;94902.81;1089287;27;20021;-72
2024/04/09 01:31:46;;;;;;;12.13;3.20;;;;;;;14.93;100.00;94898.31;1092007;27;20872;-73
2024/04/09 01:32:17;;;;;;;16.92;2.92;;;;;;;14.95;100.00;94901.41;1082039;27;20011;-73
2024/04/09 01:32:49;;;;;;;10.93;2.80;;;;;;;14.98;100.00;94902.66;1075431;27;20015;-72
2024/04/09 01:33:19;;;;;;;18.67;3.05;;;;;;;14.97;100.00;94899.25;1081868;27;20352;-73
2024/04/09 01:33:51;;;;;;;16.48;3.38;;;;;;;15.01;100.00;94904.69;1096453;26;19997;-73
2024/04/09 01:34:22;;;;;;;17.85;3.50;;;;;;;15.02;100.00;94906.22;1095932;27;20006;-73
2024/04/09 01:34:52;;;;;;;18.17;3.13;;;;;;;15.01;100.00;94907.31;1091761;27;20068;-73
2024/04/09 01:35:23;;;;;;;11.98;2.95;;;;;;;14.93;100.00;94900.97;1088326;27;20017;-73
2024/04/09 01:35:53;;;;;;;11.43;2.90;;;;;;;15.03;100.00;94905.94;1075655;27;20008;-72
2024/04/09 01:36:25;;;;;;;15.65;3.30;;;;;;;15.04;100.00;94910.13;1081766;27;20084;-73
2024/04/09 01:36:57;;;;;;;10.23;2.83;;;;;;;15.02;100.00;94904.38;1095973;27;20016;-73
2024/04/09 01:37:28;;;;;;;13.57;2.80;;;;;;;15.01;100.00;94908.09;1088958;27;20003;-73
2024/04/09 01:37:58;;;;;;;13.02;3.30;;;;;;;15.02;100.00;94908.88;1089537;27;20027;-73
2024/04/09 01:38:29;;;;;;;13.80;2.72;;;;;;;14.98;100.00;94898.16;1088454;27;20117;-73
2024/04/09 01:38:59;;;;;;;16.33;3.17;;;;;;;15.02;100.00;94907.03;1089658;26;20009;-73
2024/04/09 01:39:30;;;;;;;23.98;3.78;;;;;;;15.02;100.00;94903.59;1109673;26;20376;-72
2024/04/09 01:40:02;;;;;;;17.67;3.00;;;;;;;14.98;100.00;94911.34;1095854;26;20001;-73
2024/04/09 01:40:32;;;;;;;16.80;2.65;;;;;;;14.92;100.00;94909.19;1095478;27;20079;-73
2024/04/09 01:41:03;;;;;;;14.95;3.15;;;;;;;14.99;100.00;94905.00;1096176;27;20096;-73
2024/04/09 01:41:36;;;;;;;16.40;3.33;;;;;;;14.94;100.00;94899.09;1093550;26;20017;-73
2024/04/09 01:42:09;;;;;;;26.13;3.50;;;;;;;14.97;100.00;94911.69;1082976;27;20035;-72
2024/04/09 01:42:39;;;;;;;12.68;3.78;;;;;;;14.92;100.00;94909.94;1080732;27;20095;-72
2024/04/09 01:43:09;;;;;;;9.52;3.10;;;;;;;14.93;100.00;94905.47;1082033;27;20073;-72
2024/04/09 01:43:40;;;;;;;22.38;4.60;;;;;;;14.92;100.00;94906.53;1082041;27;20126;-73
2024/04/09 01:44:10;;;;;;;24.50;4.38;;;;;;;14.88;100.00;94898.44;1085713;26;20022;-73
2024/04/09 01:44:42;;;;;;;18.90;3.65;;;;;;;14.93;100.00;94905.47;1095903;27;20044;-73
2024/04/09 01:45:13;;;;;;;23.02;3.65;;;;;;;14.88;100.00;94892.41;1096320;26;20006;-72
2024/04/09 01:45:43;;;;;;;18.27;3.33;;;;;;;14.88;100.00;94897.69;1094986;27;20009;-73
2024/04/09 01:46:14;;;;;;;21.67;3.28;;;;;;;14.84;100.00;94908.88;1088877;27;20014;-73
2024/04/09 01:46:47;;;;;;;22.10;3.58;;;;;;;14.81;100.00;94906.84;1086214;27;20006;-73
2024/04/09 01:47:18;;;;;;;9.55;2.70;;;;;;;14.77;100.00;94903.25;1083034;27;20003;-74
2024/04/09 01:47:48;;;;;;;20.08;3.63;;;;;;;14.73;100.00;94898.91;1083370;27;20502;-72
2024/04/09 01:48:19;;;;;;;13.20;3.08;;;;;;;14.75;100.00;94908.06;1090306;27;20788;-72
2024/04/09 01:48:49;;;;;;;11.93;3.17;;;;;;;14.69;100.00;94896.13;1092327;27;20002;-73
2024/04/09 01:49:20;;;;;;;17.27;3.35;;;;;;;14.71;100.00;94901.84;1090263;27;20010;-73
2024/04/09 01:49:50;;;;;;;17.63;3.25;;;;;;;14.72;100.00;94898.16;1088513;27;20092;-72
2024/04/09 01:50:21;;;;;;;17.08;3.83;;;;;;;14.71;100.00;94899.22;1082130;27;20007;-72
2024/04/09 01:50:51;;;;;;;20.88;3.55;;;;;;;14.66;100.00;94896.75;1095946;27;20006;-73
2024/04/09 01:51:22;;;;;;;16.17;3.13;;;;;;;14.72;100.00;94900.78;1089100;27;20010;-73
2024/04/09 01:51:52;;;;;;;19.90;3.10;;;;;;;14.69;100.00;94901.41;1095949;26;20021;-73
2024/04/09 01:52:23;;;;;;;7.10;2.78;;;;;;;14.65;100.00;94902.31;1110098;26;20001;-73
2024/04/09 01:52:53;;;;;;;16.70;2.78;;;;;;;14.64;100.00;94895.47;1110309;26;20000;-73
2024/04/09 01:53:24;;;;;;;15.93;3.67;;;;;;;14.66;100.00;94901.25;1110245;26;20870;-73
2024/04/09 01:53:54;;;;;;;13.93;3.10;;;;;;;14.57;100.00;94883.50;1110169;26;20001;-73
2024/04/09 01:54:25;;;;;;;15.45;3.20;;;;;;;14.68;100.00;94899.81;1088900;27;20010;-73
2024/04/09 01:54:55;;;;;;;13.48;3.50;;;;;;;14.71;100.00;94899.22;1082175;27;20017;-72
2024/04/09 01:55:26;;;;;;;14.82;3.05;;;;;;;14.64;100.00;94893.63;1095747;27;20001;-72
2024/04/09 01:56:00;;;;;;;19.55;3.75;;;;;;;14.68;100.00;94902.47;1081998;27;20459;-73
2024/04/09 01:56:30;;;;;;;12.95;3.30;;;;;;;14.67;100.00;94893.00;1088743;27;20002;-72
2024/04/09 01:57:01;;;;;;;24.92;3.08;;;;;;;14.64;100.00;94898.91;1081778;27;20007;-73
2024/04/09 01:57:31;;;;;;;15.32;2.92;;;;;;;14.65;100.00;94889.09;1090823;26;20018;-72
2024/04/09 01:58:04;;;;;;;16.75;2.40;;;;;;;14.66;100.00;94894.09;1095846;27;20051;-72
2024/04/09 01:58:35;;;;;;;11.65;3.22;;;;;;;14.61;100.00;94895.00;1081776;27;20483;-72
2024/04/09 01:59:05;;;;;;;7.75;2.72;;;;;;;14.58;100.00;94897.47;1071855;27;20020;-72
2024/04/09 01:59:36;;;;;;;17.67;2.95;;;;;;;14.52;100.00;94888.16;1074462;27;20048;-72
2024/04/09 02:00:19;;;;;;;15.55;3.15;;;;;;;14.48;100.00;94889.81;1082639;27;20055;-72
2024/04/09 02:00:50;;;;;;;20.50;3.45;;;;;;;14.47;100.00;94902.25;1085401;27;20013;-72
2024/04/09 02:01:21;;;;;;;21.58;3.13;;;;;;;14.43;100.00;94892.63;1096073;27;20012;-72
2024/04/09 02:01:52;;;;;;;20.48;3.65;;;;;;;14.37;100.00;94895.41;1088949;27;20113;-73
2024/04/09 02:02:23;;;;;;;8.65;2.60;;;;;;;14.34;100.00;94897.88;1077615;27;20007;-73
2024/04/09 02:02:54;;;;;;;15.63;2.60;;;;;;;14.25;100.00;94891.78;1088842;27;20647;-73
2024/04/09 02:03:25;;;;;;;13.65;3.33;;;;;;;14.19;100.00;94898.31;1089475;27;20090;-72
2024/04/09 02:03:56;;;;;;;13.95;2.47;;;;;;;14.15;100.00;94898.13;1089929;26;20010;-72
2024/04/09 02:04:27;;;;;;;16.02;2.58;;;;;;;14.02;100.00;94891.13;1103049;26;20029;-72
2024/04/09 02:04:58;;;;;;;17.33;3.15;;;;;;;14.03;100.00;94898.72;1095632;27;20338;-72
2024/04/09 02:05:28;;;;;;;20.33;3.08;;;;;;;14.00;100.00;94899.31;1096220;26;20025;-72
2024/04/09 02:05:59;;;;;;;19.58;3.75;;;;;;;13.98;100.00;94898.06;1093873;27;20392;-72
2024/04/09 02:06:31;;;;;;;10.45;2.80;;;;;;;13.91;100.00;94904.53;1095896;27;20020;-73
2024/04/09 02:07:01;;;;;;;18.08;2.80;;;;;;;13.89;100.00;94900.69;1089707;27;20013;-72
2024/04/09 02:07:31;;;;;;;21.48;5.80;;;;;;;13.85;100.00;94899.72;1088210;27;20021;-72
2024/04/09 02:08:02;;;;;;;18.98;4.68;;;;;;;13.81;100.00;94898.75;1088826;27;20082;-73
2024/04/09 02:08:33;;;;;;;18.88;3.65;;;;;;;13.78;100.00;94904.63;1089117;27;20006;-72
2024/04/09 02:09:04;;;;;;;23.85;3.90;;;;;;;13.76;100.00;94899.69;1095891;26;20772;-72
2024/04/09 02:09:34;;;;;;;20.55;3.88;;;;;;;13.66;100.00;94894.66;1101040;26;20015;-72
2024/04/09 02:10:05;;;;;;;18.40;2.97;;;;;;;13.64;100.00;94902.09;1081910;27;20499;-72
2024/04/09 02:10:36;;;;;;;17.10;3.40;;;;;;;13.62;100.00;94906.91;1088904;27;20115;-72
2024/04/09 02:11:07;;;;;;;13.77;3.83;;;;;;;13.58;100.00;94898.00;1088449;27;20078;-72
2024/04/09 02:11:37;;;;;;;18.83;3.03;;;;;;;13.53;100.00;94903.44;1081838;27;20019;-73
2024/04/09 02:12:08;;;;;;;23.50;4.00;;;;;;;13.47;100.00;94899.34;1074999;27;20058;-72
2024/04/09 02:12:38;;;;;;;15.27;3.55;;;;;;;13.49;100.00;94907.75;1081876;27;20003;-73
2024/04/09 02:13:09;;;;;;;19.48;3.10;;;;;;;13.43;100.00;94902.59;1082299;27;19998;-73
2024/04/09 02:13:42;;;;;;;10.25;3.83;;;;;;;13.42;100.00;94902.91;1095835;27;20006;-73
2024/04/09 02:14:13;;;;;;;22.73;3.60;;;;;;;13.43;100.00;94904.44;1088715;27;19998;-73
2024/04/09 02:14:43;;;;;;;20.92;3.45;;;;;;;13.40;100.00;94911.09;1088977;27;20076;-73
2024/04/09 02:15:14;;;;;;;16.05;3.63;;;;;;;13.37;100.00;94905.66;1095793;27;20054;-73
2024/04/09 02:15:45;;;;;;;19.52;3.28;;;;;;;13.37;100.00;94911.69;1095833;27;20012;-72
2024/04/09 02:16:16;;;;;;;16.05;3.50;;;;;;;13.34;100.00;94907.03;1101936;26;20583;-72
2024/04/09 02:16:46;;;;;;;17.27;3.80;;;;;;;13.30;100.00;94898.16;1095673;27;20045;-72
2024/04/09 02:17:17;;;;;;;18.45;3.42;;;;;;;13.31;100.00;94902.38;1095904;27;20013;-73
2024/04/09 02:17:47;;;;;;;16.05;3.40;;;;;;;13.29;100.00;94901.88;1095602;26;20369;-73
2024/04/09 02:18:18;;;;;;;16.20;2.90;;;;;;;13.26;100.00;94897.22;1088755;27;20006;-73
2024/04/09 02:18:48;;;;;;;22.33;3.08;;;;;;;13.26;100.00;94899.84;1088674;27;20002;-73
2024/04/09 02:19:18;;;;;;;16.55;3.92;;;;;;;13.26;100.00;94899.84;1094910;27;20393;-71
2024/04/09 02:19:49;;;;;;;16.02;3.30;;;;;;;13.26;100.00;94905.13;1095963;26;20488;-73
2024/04/09 02:20:19;;;;;;;23.90;3.60;;;;;;;13.27;100.00;94906.66;1095941;27;20005;-73
2024/04/09 02:20:50;;;;;;;17.58;2.92;;;;;;;13.26;100.00;94909.63;1095816;27;20002;-73
2024/04/09 02:21:22;;;;;;;12.77;3.47;;;;;;;13.21;100.00;94900.72;1095751;26;20737;-73
2024/04/09 02:21:53;;;;;;;19.52;4.65;;;;;;;13.24;100.00;94907.25;1088026;27;20002;-71
2024/04/09 02:22:24;;;;;;;9.63;2.90;;;;;;;13.22;100.00;94909.41;1081261;27;20494;-72
2024/04/09 02:22:55;;;;;;;13.23;3.55;;;;;;;13.19;100.00;94912.63;1084611;27;20003;-73
2024/04/09 02:23:25;;;;;;;9.02;3.75;;;;;;;13.18;100.00;94909.22;1084154;27;19999;-72